sensor_id;sensor_type;location;lat;lon;timestamp;temperature;humidity
19206;DHT22;59358;52.134;5.596;2023-05-07T00:00:37;14.80;99.90
19206;DHT22;59358;52.134;5.596;2023-05-07T00:03:03;14.80;99.90
19206;DHT22;59358;52.134;5.596;2023-05-07T00:05:30;14.80;99.90
19206;DHT22;59358;52.134;5.596;2023-05-07T00:07:57;14.80;99.90
19206;DHT22;59358;52.134;5.596;2023-05-07T00:10:24;14.70;99.90
19206;DHT22;59358;52.134;5.596;2023-05-07T00:12:51;14.70;99.90
19206;DHT22;59358;52.134;5.596;2023-05-07T00:15:18;14.70;99.90
19206;DHT22;59358;52.134;5.596;2023-05-07T00:17:46;14.80;99.90
19206;DHT22;59358;52.134;5.596;2023-05-07T00:20:13;14.90;99.90
19206;DHT22;59358;52.134;5.596;2023-05-07T00:22:40;14.80;99.90
19206;DHT22;59358;52.134;5.596;2023-05-07T00:25:07;14.90;99.90
19206;DHT22;59358;52.134;5.596;2023-05-07T00:27:35;14.90;99.90
19206;DHT22;59358;52.134;5.596;2023-05-07T00:30:02;14.90;99.90
19206;DHT22;59358;52.134;5.596;2023-05-07T00:32:29;14.90;99.90
19206;DHT22;59358;52.134;5.596;2023-05-07T00:34:57;14.90;99.90
19206;DHT22;59358;52.134;5.596;2023-05-07T00:37:24;14.90;99.90
19206;DHT22;59358;52.134;5.596;2023-05-07T00:39:51;14.90;99.90
19206;DHT22;59358;52.134;5.596;2023-05-07T00:42:18;14.80;99.90
19206;DHT22;59358;52.134;5.596;2023-05-07T00:44:44;14.80;99.90
19206;DHT22;59358;52.134;5.596;2023-05-07T00:47:12;14.70;99.90
19206;DHT22;59358;52.134;5.596;2023-05-07T00:49:42;14.70;99.90
19206;DHT22;59358;52.134;5.596;2023-05-07T00:52:13;14.60;99.90
19206;DHT22;59358;52.134;5.596;2023-05-07T00:54:41;14.60;99.90
19206;DHT22;59358;52.134;5.596;2023-05-07T00:57:09;14.60;99.90
19206;DHT22;59358;52.134;5.596;2023-05-07T00:59:36;14.50;99.90
19206;DHT22;59358;52.134;5.596;2023-05-07T01:02:03;14.50;99.90
19206;DHT22;59358;52.134;5.596;2023-05-07T01:04:30;14.50;99.90
19206;DHT22;59358;52.134;5.596;2023-05-07T01:06:58;14.50;99.90
19206;DHT22;59358;52.134;5.596;2023-05-07T01:09:27;14.50;99.90
19206;DHT22;59358;52.134;5.596;2023-05-07T01:11:55;14.50;99.90
19206;DHT22;59358;52.134;5.596;2023-05-07T01:14:23;14.60;99.90
19206;DHT22;59358;52.134;5.596;2023-05-07T01:16:51;14.60;99.90
19206;DHT22;59358;52.134;5.596;2023-05-07T01:19:19;14.60;99.90
19206;DHT22;59358;52.134;5.596;2023-05-07T01:21:47;14.60;99.90
19206;DHT22;59358;52.134;5.596;2023-05-07T01:24:15;14.60;99.90
19206;DHT22;59358;52.134;5.596;2023-05-07T01:26:43;14.60;99.90
19206;DHT22;59358;52.134;5.596;2023-05-07T01:29:10;14.70;99.90
19206;DHT22;59358;52.134;5.596;2023-05-07T01:31:37;14.60;99.90
19206;DHT22;59358;52.134;5.596;2023-05-07T01:34:07;14.60;99.90
19206;DHT22;59358;52.134;5.596;2023-05-07T01:36:35;14.60;99.90
19206;DHT22;59358;52.134;5.596;2023-05-07T01:39:03;14.60;99.90
19206;DHT22;59358;52.134;5.596;2023-05-07T01:41:32;14.60;99.90
19206;DHT22;59358;52.134;5.596;2023-05-07T01:44:00;14.60;99.90
19206;DHT22;59358;52.134;5.596;2023-05-07T01:46:28;14.50;99.90
19206;DHT22;59358;52.134;5.596;2023-05-07T01:48:55;14.50;99.90
19206;DHT22;59358;52.134;5.596;2023-05-07T01:51:22;14.60;99.90
19206;DHT22;59358;52.134;5.596;2023-05-07T01:53:49;14.60;99.90
19206;DHT22;59358;52.134;5.596;2023-05-07T01:56:16;14.60;99.90
19206;DHT22;59358;52.134;5.596;2023-05-07T01:58:45;14.60;99.90
19206;DHT22;59358;52.134;5.596;2023-05-07T02:01:13;14.60;99.90
19206;DHT22;59358;52.134;5.596;2023-05-07T02:03:40;14.60;99.90
19206;DHT22;59358;52.134;5.596;2023-05-07T02:06:07;14.70;99.90
19206;DHT22;59358;52.134;5.596;2023-05-07T02:08:34;14.60;99.90
19206;DHT22;59358;52.134;5.596;2023-05-07T02:11:00;14.60;99.90
19206;DHT22;59358;52.134;5.596;2023-05-07T02:13:29;14.60;99.90
19206;DHT22;59358;52.134;5.596;2023-05-07T02:15:58;14.60;99.90
19206;DHT22;59358;52.134;5.596;2023-05-07T02:18:24;14.70;99.90
19206;DHT22;59358;52.134;5.596;2023-05-07T02:20:51;14.70;99.90
19206;DHT22;59358;52.134;5.596;2023-05-07T02:23:18;14.70;99.90
19206;DHT22;59358;52.134;5.596;2023-05-07T02:25:45;14.70;99.90
19206;DHT22;59358;52.134;5.596;2023-05-07T02:28:12;14.60;99.90
19206;DHT22;59358;52.134;5.596;2023-05-07T02:30:39;14.70;99.90
19206;DHT22;59358;52.134;5.596;2023-05-07T02:33:07;14.70;99.90
19206;DHT22;59358;52.134;5.596;2023-05-07T02:35:35;14.70;99.90
19206;DHT22;59358;52.134;5.596;2023-05-07T02:38:02;14.70;99.90
19206;DHT22;59358;52.134;5.596;2023-05-07T02:40:29;14.70;99.90
19206;DHT22;59358;52.134;5.596;2023-05-07T02:42:59;14.60;99.90
19206;DHT22;59358;52.134;5.596;2023-05-07T02:45:25;14.60;99.90
19206;DHT22;59358;52.134;5.596;2023-05-07T02:47:52;14.60;99.90
19206;DHT22;59358;52.134;5.596;2023-05-07T02:50:20;14.60;99.90
19206;DHT22;59358;52.134;5.596;2023-05-07T02:52:47;14.50;99.90
19206;DHT22;59358;52.134;5.596;2023-05-07T02:55:14;14.60;99.90
19206;DHT22;59358;52.134;5.596;2023-05-07T02:57:41;14.50;99.90
19206;DHT22;59358;52.134;5.596;2023-05-07T03:00:14;14.60;99.90
19206;DHT22;59358;52.134;5.596;2023-05-07T03:02:41;14.60;99.90
19206;DHT22;59358;52.134;5.596;2023-05-07T03:05:07;14.60;99.90
19206;DHT22;59358;52.134;5.596;2023-05-07T03:07:36;14.60;99.90
19206;DHT22;59358;52.134;5.596;2023-05-07T03:10:03;14.60;99.90
19206;DHT22;59358;52.134;5.596;2023-05-07T03:12:30;14.60;99.90
19206;DHT22;59358;52.134;5.596;2023-05-07T03:14:57;14.60;99.90
19206;DHT22;59358;52.134;5.596;2023-05-07T03:17:24;14.60;99.90
19206;DHT22;59358;52.134;5.596;2023-05-07T03:19:51;14.60;99.90
19206;DHT22;59358;52.134;5.596;2023-05-07T03:22:18;14.60;99.90
19206;DHT22;59358;52.134;5.596;2023-05-07T03:24:46;14.70;99.90
19206;DHT22;59358;52.134;5.596;2023-05-07T03:27:13;14.60;99.90
19206;DHT22;59358;52.134;5.596;2023-05-07T03:29:40;14.60;99.90
19206;DHT22;59358;52.134;5.596;2023-05-07T03:32:07;14.50;99.90
19206;DHT22;59358;52.134;5.596;2023-05-07T03:34:33;14.50;99.90
19206;DHT22;59358;52.134;5.596;2023-05-07T03:37:00;14.50;99.90
19206;DHT22;59358;52.134;5.596;2023-05-07T03:39:27;14.50;99.90
19206;DHT22;59358;52.134;5.596;2023-05-07T03:41:56;14.50;99.90
19206;DHT22;59358;52.134;5.596;2023-05-07T03:44:23;14.50;99.90
19206;DHT22;59358;52.134;5.596;2023-05-07T03:46:50;14.50;99.90
19206;DHT22;59358;52.134;5.596;2023-05-07T03:49:16;14.50;99.90
19206;DHT22;59358;52.134;5.596;2023-05-07T03:51:43;14.50;99.90
19206;DHT22;59358;52.134;5.596;2023-05-07T03:54:10;14.50;99.90
19206;DHT22;59358;52.134;5.596;2023-05-07T03:56:37;14.50;99.90
19206;DHT22;59358;52.134;5.596;2023-05-07T03:59:05;14.50;99.90
19206;DHT22;59358;52.134;5.596;2023-05-07T04:01:32;14.50;99.90
19206;DHT22;59358;52.134;5.596;2023-05-07T04:03:59;14.50;99.90
19206;DHT22;59358;52.134;5.596;2023-05-07T04:06:26;14.50;99.90
19206;DHT22;59358;52.134;5.596;2023-05-07T04:08:53;14.50;99.90
19206;DHT22;59358;52.134;5.596;2023-05-07T04:11:19;14.60;99.90
19206;DHT22;59358;52.134;5.596;2023-05-07T04:13:46;14.60;99.90
19206;DHT22;59358;52.134;5.596;2023-05-07T04:16:14;14.60;99.90
19206;DHT22;59358;52.134;5.596;2023-05-07T04:18:41;14.60;99.90
19206;DHT22;59358;52.134;5.596;2023-05-07T04:21:14;14.50;99.90
19206;DHT22;59358;52.134;5.596;2023-05-07T04:23:41;14.50;99.90
19206;DHT22;59358;52.134;5.596;2023-05-07T04:26:08;14.60;99.90
19206;DHT22;59358;52.134;5.596;2023-05-07T04:28:35;14.60;99.90
19206;DHT22;59358;52.134;5.596;2023-05-07T04:31:02;14.60;99.90
19206;DHT22;59358;52.134;5.596;2023-05-07T04:33:30;14.60;99.90
19206;DHT22;59358;52.134;5.596;2023-05-07T04:35:57;14.60;99.90
19206;DHT22;59358;52.134;5.596;2023-05-07T04:38:28;14.60;99.90
19206;DHT22;59358;52.134;5.596;2023-05-07T04:40:54;14.60;99.90
19206;DHT22;59358;52.134;5.596;2023-05-07T04:43:21;14.60;99.90
19206;DHT22;59358;52.134;5.596;2023-05-07T04:45:49;14.60;99.90
19206;DHT22;59358;52.134;5.596;2023-05-07T04:48:16;14.60;99.90
19206;DHT22;59358;52.134;5.596;2023-05-07T04:50:47;14.70;99.90
19206;DHT22;59358;52.134;5.596;2023-05-07T04:53:14;14.70;99.90
19206;DHT22;59358;52.134;5.596;2023-05-07T04:55:41;14.70;99.90
19206;DHT22;59358;52.134;5.596;2023-05-07T04:58:08;14.60;99.90
19206;DHT22;59358;52.134;5.596;2023-05-07T05:00:35;14.60;99.90
19206;DHT22;59358;52.134;5.596;2023-05-07T05:03:01;14.60;99.90
19206;DHT22;59358;52.134;5.596;2023-05-07T05:05:28;14.60;99.90
19206;DHT22;59358;52.134;5.596;2023-05-07T05:07:56;14.60;99.90
19206;DHT22;59358;52.134;5.596;2023-05-07T05:10:23;14.60;99.90
19206;DHT22;59358;52.134;5.596;2023-05-07T05:12:50;14.70;99.90
19206;DHT22;59358;52.134;5.596;2023-05-07T05:15:17;14.70;99.90
19206;DHT22;59358;52.134;5.596;2023-05-07T05:17:43;14.70;99.90
19206;DHT22;59358;52.134;5.596;2023-05-07T05:20:10;14.80;99.90
19206;DHT22;59358;52.134;5.596;2023-05-07T05:22:37;14.80;99.90
19206;DHT22;59358;52.134;5.596;2023-05-07T05:25:07;14.80;99.90
19206;DHT22;59358;52.134;5.596;2023-05-07T05:27:34;14.90;99.90
19206;DHT22;59358;52.134;5.596;2023-05-07T05:30:01;14.90;99.90
19206;DHT22;59358;52.134;5.596;2023-05-07T05:32:27;15.00;99.90
19206;DHT22;59358;52.134;5.596;2023-05-07T05:34:54;15.00;99.90
19206;DHT22;59358;52.134;5.596;2023-05-07T05:37:21;15.00;99.90
19206;DHT22;59358;52.134;5.596;2023-05-07T05:39:48;15.00;99.90
19206;DHT22;59358;52.134;5.596;2023-05-07T05:42:16;15.10;99.90
19206;DHT22;59358;52.134;5.596;2023-05-07T05:44:43;15.10;99.90
19206;DHT22;59358;52.134;5.596;2023-05-07T05:47:09;15.10;99.90
19206;DHT22;59358;52.134;5.596;2023-05-07T05:49:36;15.20;99.90
19206;DHT22;59358;52.134;5.596;2023-05-07T05:52:03;15.30;99.90
19206;DHT22;59358;52.134;5.596;2023-05-07T05:54:30;15.20;99.90
19206;DHT22;59358;52.134;5.596;2023-05-07T05:56:57;15.20;99.90
19206;DHT22;59358;52.134;5.596;2023-05-07T05:59:26;15.20;99.90
19206;DHT22;59358;52.134;5.596;2023-05-07T06:01:53;15.10;99.90
19206;DHT22;59358;52.134;5.596;2023-05-07T06:04:20;15.20;99.90
19206;DHT22;59358;52.134;5.596;2023-05-07T06:06:47;15.30;99.90
19206;DHT22;59358;52.134;5.596;2023-05-07T06:09:13;15.40;99.90
19206;DHT22;59358;52.134;5.596;2023-05-07T06:11:40;15.50;99.90
19206;DHT22;59358;52.134;5.596;2023-05-07T06:14:07;15.60;99.90
19206;DHT22;59358;52.134;5.596;2023-05-07T06:16:35;15.70;99.90
19206;DHT22;59358;52.134;5.596;2023-05-07T06:19:03;15.70;99.90
19206;DHT22;59358;52.134;5.596;2023-05-07T06:21:30;15.60;99.90
19206;DHT22;59358;52.134;5.596;2023-05-07T06:23:56;15.60;99.90
19206;DHT22;59358;52.134;5.596;2023-05-07T06:26:23;15.60;99.90
19206;DHT22;59358;52.134;5.596;2023-05-07T06:28:50;15.60;99.90
19206;DHT22;59358;52.134;5.596;2023-05-07T06:31:19;15.60;99.90
19206;DHT22;59358;52.134;5.596;2023-05-07T06:33:48;15.70;99.90
19206;DHT22;59358;52.134;5.596;2023-05-07T06:36:15;15.70;99.90
19206;DHT22;59358;52.134;5.596;2023-05-07T06:38:42;15.70;99.90
19206;DHT22;59358;52.134;5.596;2023-05-07T06:41:09;15.80;99.90
19206;DHT22;59358;52.134;5.596;2023-05-07T06:43:36;16.00;99.90
19206;DHT22;59358;52.134;5.596;2023-05-07T06:46:03;16.00;99.90
19206;DHT22;59358;52.134;5.596;2023-05-07T06:48:30;16.10;99.90
19206;DHT22;59358;52.134;5.596;2023-05-07T06:51:01;16.20;99.90
19206;DHT22;59358;52.134;5.596;2023-05-07T06:53:28;16.20;99.90
19206;DHT22;59358;52.134;5.596;2023-05-07T06:55:56;16.20;99.90
19206;DHT22;59358;52.134;5.596;2023-05-07T06:58:23;16.30;99.90
19206;DHT22;59358;52.134;5.596;2023-05-07T07:00:52;16.30;99.90
19206;DHT22;59358;52.134;5.596;2023-05-07T07:03:19;16.40;99.90
19206;DHT22;59358;52.134;5.596;2023-05-07T07:05:46;16.50;99.90
19206;DHT22;59358;52.134;5.596;2023-05-07T07:08:14;16.50;99.90
19206;DHT22;59358;52.134;5.596;2023-05-07T07:10:43;16.50;99.90
19206;DHT22;59358;52.134;5.596;2023-05-07T07:13:12;16.60;99.90
19206;DHT22;59358;52.134;5.596;2023-05-07T07:15:39;16.70;99.90
19206;DHT22;59358;52.134;5.596;2023-05-07T07:18:06;16.70;99.90
19206;DHT22;59358;52.134;5.596;2023-05-07T07:20:33;16.50;99.90
19206;DHT22;59358;52.134;5.596;2023-05-07T07:23:00;16.40;99.90
19206;DHT22;59358;52.134;5.596;2023-05-07T07:25:28;16.30;99.90
19206;DHT22;59358;52.134;5.596;2023-05-07T07:27:55;16.30;99.90
19206;DHT22;59358;52.134;5.596;2023-05-07T07:30:22;16.30;99.90
19206;DHT22;59358;52.134;5.596;2023-05-07T07:32:49;16.30;99.90
19206;DHT22;59358;52.134;5.596;2023-05-07T07:35:16;16.40;99.90
19206;DHT22;59358;52.134;5.596;2023-05-07T07:37:42;16.50;99.90
19206;DHT22;59358;52.134;5.596;2023-05-07T07:40:11;16.50;99.90
19206;DHT22;59358;52.134;5.596;2023-05-07T07:42:42;16.60;99.90
19206;DHT22;59358;52.134;5.596;2023-05-07T07:45:09;16.70;99.90
19206;DHT22;59358;52.134;5.596;2023-05-07T07:47:36;16.80;99.90
19206;DHT22;59358;52.134;5.596;2023-05-07T07:50:04;16.90;99.90
19206;DHT22;59358;52.134;5.596;2023-05-07T07:52:31;17.00;99.90
19206;DHT22;59358;52.134;5.596;2023-05-07T07:54:58;17.10;99.90
19206;DHT22;59358;52.134;5.596;2023-05-07T07:57:25;17.10;99.90
19206;DHT22;59358;52.134;5.596;2023-05-07T07:59:53;17.20;99.90
19206;DHT22;59358;52.134;5.596;2023-05-07T08:02:20;17.20;99.90
19206;DHT22;59358;52.134;5.596;2023-05-07T08:04:47;17.30;99.90
19206;DHT22;59358;52.134;5.596;2023-05-07T08:07:13;17.30;99.90
19206;DHT22;59358;52.134;5.596;2023-05-07T08:09:40;17.40;99.90
19206;DHT22;59358;52.134;5.596;2023-05-07T08:12:07;17.50;99.90
19206;DHT22;59358;52.134;5.596;2023-05-07T08:14:34;17.50;99.90
19206;DHT22;59358;52.134;5.596;2023-05-07T08:17:03;17.50;99.90
19206;DHT22;59358;52.134;5.596;2023-05-07T08:19:29;17.60;99.90
19206;DHT22;59358;52.134;5.596;2023-05-07T08:21:56;17.70;99.90
19206;DHT22;59358;52.134;5.596;2023-05-07T08:24:23;17.70;99.90
19206;DHT22;59358;52.134;5.596;2023-05-07T08:26:50;17.80;99.90
19206;DHT22;59358;52.134;5.596;2023-05-07T08:29:17;17.80;99.90
19206;DHT22;59358;52.134;5.596;2023-05-07T08:31:43;18.00;99.90
19206;DHT22;59358;52.134;5.596;2023-05-07T08:34:11;18.00;99.90
19206;DHT22;59358;52.134;5.596;2023-05-07T08:36:38;17.90;99.90
19206;DHT22;59358;52.134;5.596;2023-05-07T08:39:07;18.00;99.90
19206;DHT22;59358;52.134;5.596;2023-05-07T08:41:34;18.00;99.90
19206;DHT22;59358;52.134;5.596;2023-05-07T08:44:03;17.80;99.90
19206;DHT22;59358;52.134;5.596;2023-05-07T08:46:32;17.50;99.90
19206;DHT22;59358;52.134;5.596;2023-05-07T08:49:00;17.30;99.90
19206;DHT22;59358;52.134;5.596;2023-05-07T08:51:28;17.20;99.90
19206;DHT22;59358;52.134;5.596;2023-05-07T08:53:55;17.00;99.90
19206;DHT22;59358;52.134;5.596;2023-05-07T08:56:22;16.90;99.90
19206;DHT22;59358;52.134;5.596;2023-05-07T08:58:49;16.90;99.90
19206;DHT22;59358;52.134;5.596;2023-05-07T09:01:16;16.90;99.90
19206;DHT22;59358;52.134;5.596;2023-05-07T09:03:45;16.90;99.90
19206;DHT22;59358;52.134;5.596;2023-05-07T09:06:12;17.00;99.90
19206;DHT22;59358;52.134;5.596;2023-05-07T09:08:40;17.10;99.90
19206;DHT22;59358;52.134;5.596;2023-05-07T09:11:07;17.20;99.90
19206;DHT22;59358;52.134;5.596;2023-05-07T09:13:35;17.30;99.90
19206;DHT22;59358;52.134;5.596;2023-05-07T09:16:10;17.20;99.90
19206;DHT22;59358;52.134;5.596;2023-05-07T09:18:41;17.20;99.90
19206;DHT22;59358;52.134;5.596;2023-05-07T09:21:10;17.20;99.90
19206;DHT22;59358;52.134;5.596;2023-05-07T09:23:37;17.20;99.90
19206;DHT22;59358;52.134;5.596;2023-05-07T09:26:05;17.30;99.90
19206;DHT22;59358;52.134;5.596;2023-05-07T09:28:38;17.40;99.90
19206;DHT22;59358;52.134;5.596;2023-05-07T09:31:05;17.30;99.90
19206;DHT22;59358;52.134;5.596;2023-05-07T09:33:32;17.30;99.90
19206;DHT22;59358;52.134;5.596;2023-05-07T09:36:03;17.30;99.90
19206;DHT22;59358;52.134;5.596;2023-05-07T09:38:31;17.30;99.90
19206;DHT22;59358;52.134;5.596;2023-05-07T09:41:02;17.30;99.90
19206;DHT22;59358;52.134;5.596;2023-05-07T09:43:33;17.40;99.90
19206;DHT22;59358;52.134;5.596;2023-05-07T09:46:03;17.30;99.90
19206;DHT22;59358;52.134;5.596;2023-05-07T09:48:33;17.40;99.90
19206;DHT22;59358;52.134;5.596;2023-05-07T09:51:02;17.50;99.90
19206;DHT22;59358;52.134;5.596;2023-05-07T09:53:33;17.70;99.90
19206;DHT22;59358;52.134;5.596;2023-05-07T09:56:01;18.00;99.90
19206;DHT22;59358;52.134;5.596;2023-05-07T09:58:28;18.00;99.90
19206;DHT22;59358;52.134;5.596;2023-05-07T10:00:57;18.00;99.90
19206;DHT22;59358;52.134;5.596;2023-05-07T10:03:24;18.30;99.90
19206;DHT22;59358;52.134;5.596;2023-05-07T10:05:53;18.50;99.90
19206;DHT22;59358;52.134;5.596;2023-05-07T10:08:20;18.50;99.90
19206;DHT22;59358;52.134;5.596;2023-05-07T10:10:49;18.60;99.90
19206;DHT22;59358;52.134;5.596;2023-05-07T10:13:16;18.90;99.90
19206;DHT22;59358;52.134;5.596;2023-05-07T10:15:44;19.20;99.90
19206;DHT22;59358;52.134;5.596;2023-05-07T10:18:13;19.30;99.90
19206;DHT22;59358;52.134;5.596;2023-05-07T10:20:42;19.30;99.90
19206;DHT22;59358;52.134;5.596;2023-05-07T10:23:13;19.20;99.90
19206;DHT22;59358;52.134;5.596;2023-05-07T10:25:41;19.00;99.90
19206;DHT22;59358;52.134;5.596;2023-05-07T10:28:10;19.00;99.90
19206;DHT22;59358;52.134;5.596;2023-05-07T10:30:48;18.90;99.90
19206;DHT22;59358;52.134;5.596;2023-05-07T10:33:24;19.00;99.90
19206;DHT22;59358;52.134;5.596;2023-05-07T10:35:57;19.10;99.90
19206;DHT22;59358;52.134;5.596;2023-05-07T10:38:25;19.30;99.90
19206;DHT22;59358;52.134;5.596;2023-05-07T10:40:52;19.20;99.90
19206;DHT22;59358;52.134;5.596;2023-05-07T10:43:19;19.50;99.90
19206;DHT22;59358;52.134;5.596;2023-05-07T10:46:11;19.60;99.90
19206;DHT22;59358;52.134;5.596;2023-05-07T10:49:09;19.80;99.90
19206;DHT22;59358;52.134;5.596;2023-05-07T10:51:39;19.90;99.90
19206;DHT22;59358;52.134;5.596;2023-05-07T10:54:19;19.90;99.90
19206;DHT22;59358;52.134;5.596;2023-05-07T10:56:47;20.10;99.90
19206;DHT22;59358;52.134;5.596;2023-05-07T10:59:35;20.30;99.90
19206;DHT22;59358;52.134;5.596;2023-05-07T11:02:07;20.80;99.90
19206;DHT22;59358;52.134;5.596;2023-05-07T11:04:37;20.90;99.90
19206;DHT22;59358;52.134;5.596;2023-05-07T11:07:24;21.10;99.90
19206;DHT22;59358;52.134;5.596;2023-05-07T11:10:01;21.50;99.90
19206;DHT22;59358;52.134;5.596;2023-05-07T11:12:52;21.80;99.90
19206;DHT22;59358;52.134;5.596;2023-05-07T11:15:40;22.20;99.90
19206;DHT22;59358;52.134;5.596;2023-05-07T11:18:07;22.10;99.90
19206;DHT22;59358;52.134;5.596;2023-05-07T11:20:53;22.00;99.90
19206;DHT22;59358;52.134;5.596;2023-05-07T11:26:44;21.80;99.90
19206;DHT22;59358;52.134;5.596;2023-05-07T11:29:13;21.60;99.90
19206;DHT22;59358;52.134;5.596;2023-05-07T11:31:40;21.60;99.90
19206;DHT22;59358;52.134;5.596;2023-05-07T11:34:08;21.80;99.90
19206;DHT22;59358;52.134;5.596;2023-05-07T11:36:42;21.90;99.90
19206;DHT22;59358;52.134;5.596;2023-05-07T11:39:26;21.90;99.90
19206;DHT22;59358;52.134;5.596;2023-05-07T11:41:53;21.70;99.90
19206;DHT22;59358;52.134;5.596;2023-05-07T11:44:20;21.60;99.90
19206;DHT22;59358;52.134;5.596;2023-05-07T11:46:46;21.60;99.90
19206;DHT22;59358;52.134;5.596;2023-05-07T11:49:13;21.50;99.90
19206;DHT22;59358;52.134;5.596;2023-05-07T11:51:42;21.30;99.90
19206;DHT22;59358;52.134;5.596;2023-05-07T11:54:10;21.40;99.90
19206;DHT22;59358;52.134;5.596;2023-05-07T11:56:39;21.40;99.90
19206;DHT22;59358;52.134;5.596;2023-05-07T11:59:05;21.30;99.90
19206;DHT22;59358;52.134;5.596;2023-05-07T12:01:35;21.50;99.90
19206;DHT22;59358;52.134;5.596;2023-05-07T12:04:03;21.60;99.90
19206;DHT22;59358;52.134;5.596;2023-05-07T12:06:30;21.70;99.90
19206;DHT22;59358;52.134;5.596;2023-05-07T12:08:58;21.60;99.90
19206;DHT22;59358;52.134;5.596;2023-05-07T12:11:25;21.60;99.90
19206;DHT22;59358;52.134;5.596;2023-05-07T12:13:54;21.60;99.90
19206;DHT22;59358;52.134;5.596;2023-05-07T12:16:21;21.70;99.90
19206;DHT22;59358;52.134;5.596;2023-05-07T12:18:48;21.80;99.90
19206;DHT22;59358;52.134;5.596;2023-05-07T12:21:15;21.80;99.90
19206;DHT22;59358;52.134;5.596;2023-05-07T12:23:43;22.20;99.90
19206;DHT22;59358;52.134;5.596;2023-05-07T12:26:11;22.30;99.90
19206;DHT22;59358;52.134;5.596;2023-05-07T12:28:38;22.60;99.90
19206;DHT22;59358;52.134;5.596;2023-05-07T12:31:05;22.90;99.90
19206;DHT22;59358;52.134;5.596;2023-05-07T12:33:33;23.10;99.90
19206;DHT22;59358;52.134;5.596;2023-05-07T12:36:04;23.00;99.90
19206;DHT22;59358;52.134;5.596;2023-05-07T12:38:36;22.90;99.90
19206;DHT22;59358;52.134;5.596;2023-05-07T12:41:04;22.60;99.90
19206;DHT22;59358;52.134;5.596;2023-05-07T12:43:33;22.40;99.90
19206;DHT22;59358;52.134;5.596;2023-05-07T12:46:02;22.40;99.90
19206;DHT22;59358;52.134;5.596;2023-05-07T12:48:30;22.50;99.90
19206;DHT22;59358;52.134;5.596;2023-05-07T12:50:58;22.80;99.90
19206;DHT22;59358;52.134;5.596;2023-05-07T12:53:26;23.00;99.90
19206;DHT22;59358;52.134;5.596;2023-05-07T12:55:54;22.90;99.90
19206;DHT22;59358;52.134;5.596;2023-05-07T12:58:25;23.00;99.90
19206;DHT22;59358;52.134;5.596;2023-05-07T13:00:54;23.00;99.90
19206;DHT22;59358;52.134;5.596;2023-05-07T13:03:27;22.80;99.90
19206;DHT22;59358;52.134;5.596;2023-05-07T13:05:55;23.00;99.90
19206;DHT22;59358;52.134;5.596;2023-05-07T13:08:26;22.90;99.90
19206;DHT22;59358;52.134;5.596;2023-05-07T13:10:53;23.00;99.90
19206;DHT22;59358;52.134;5.596;2023-05-07T13:13:20;23.20;99.90
19206;DHT22;59358;52.134;5.596;2023-05-07T13:15:47;23.00;99.90
19206;DHT22;59358;52.134;5.596;2023-05-07T13:18:15;23.10;99.90
19206;DHT22;59358;52.134;5.596;2023-05-07T13:20:42;23.20;99.90
19206;DHT22;59358;52.134;5.596;2023-05-07T13:23:09;23.40;99.90
19206;DHT22;59358;52.134;5.596;2023-05-07T13:25:36;23.40;99.90
19206;DHT22;59358;52.134;5.596;2023-05-07T13:28:03;23.40;99.90
19206;DHT22;59358;52.134;5.596;2023-05-07T13:30:30;23.30;99.90
19206;DHT22;59358;52.134;5.596;2023-05-07T13:32:57;23.40;99.90
19206;DHT22;59358;52.134;5.596;2023-05-07T13:35:25;23.40;99.90
19206;DHT22;59358;52.134;5.596;2023-05-07T13:37:52;23.20;99.90
19206;DHT22;59358;52.134;5.596;2023-05-07T13:40:20;22.90;99.90
19206;DHT22;59358;52.134;5.596;2023-05-07T13:42:47;22.60;99.90
19206;DHT22;59358;52.134;5.596;2023-05-07T13:45:14;22.30;99.90
19206;DHT22;59358;52.134;5.596;2023-05-07T13:47:41;22.10;99.90
19206;DHT22;59358;52.134;5.596;2023-05-07T13:50:09;22.00;99.90
19206;DHT22;59358;52.134;5.596;2023-05-07T13:52:38;21.90;99.90
19206;DHT22;59358;52.134;5.596;2023-05-07T13:55:06;21.80;99.90
19206;DHT22;59358;52.134;5.596;2023-05-07T13:57:33;21.60;99.90
19206;DHT22;59358;52.134;5.596;2023-05-07T14:00:00;21.50;99.90
19206;DHT22;59358;52.134;5.596;2023-05-07T14:02:27;21.60;99.90
19206;DHT22;59358;52.134;5.596;2023-05-07T14:04:54;21.50;99.90
19206;DHT22;59358;52.134;5.596;2023-05-07T14:07:21;21.50;99.90
19206;DHT22;59358;52.134;5.596;2023-05-07T14:09:49;21.60;99.90
19206;DHT22;59358;52.134;5.596;2023-05-07T14:12:15;21.60;99.90
19206;DHT22;59358;52.134;5.596;2023-05-07T14:14:44;21.50;99.90
19206;DHT22;59358;52.134;5.596;2023-05-07T14:17:12;21.60;99.90
19206;DHT22;59358;52.134;5.596;2023-05-07T14:19:39;21.80;99.90
19206;DHT22;59358;52.134;5.596;2023-05-07T14:22:05;21.90;99.90
19206;DHT22;59358;52.134;5.596;2023-05-07T14:24:32;22.00;99.90
19206;DHT22;59358;52.134;5.596;2023-05-07T14:27:00;22.10;99.90
19206;DHT22;59358;52.134;5.596;2023-05-07T14:29:27;21.90;99.90
19206;DHT22;59358;52.134;5.596;2023-05-07T14:31:54;21.90;99.90
19206;DHT22;59358;52.134;5.596;2023-05-07T14:34:21;22.00;99.90
19206;DHT22;59358;52.134;5.596;2023-05-07T14:36:48;21.90;99.90
19206;DHT22;59358;52.134;5.596;2023-05-07T14:39:14;21.70;99.90
19206;DHT22;59358;52.134;5.596;2023-05-07T14:41:41;21.40;99.90
19206;DHT22;59358;52.134;5.596;2023-05-07T14:44:09;21.20;99.90
19206;DHT22;59358;52.134;5.596;2023-05-07T14:46:36;20.90;99.90
19206;DHT22;59358;52.134;5.596;2023-05-07T14:49:03;20.70;99.90
19206;DHT22;59358;52.134;5.596;2023-05-07T14:51:30;20.80;99.90
19206;DHT22;59358;52.134;5.596;2023-05-07T14:53:58;20.70;99.90
19206;DHT22;59358;52.134;5.596;2023-05-07T14:56:25;20.60;99.90
19206;DHT22;59358;52.134;5.596;2023-05-07T14:58:52;20.60;99.90
19206;DHT22;59358;52.134;5.596;2023-05-07T15:01:21;20.60;99.90
19206;DHT22;59358;52.134;5.596;2023-05-07T15:03:48;20.60;99.90
19206;DHT22;59358;52.134;5.596;2023-05-07T15:06:14;20.50;99.90
19206;DHT22;59358;52.134;5.596;2023-05-07T15:08:41;20.40;99.90
19206;DHT22;59358;52.134;5.596;2023-05-07T15:11:10;20.30;99.90
19206;DHT22;59358;52.134;5.596;2023-05-07T15:13:37;20.20;99.90
19206;DHT22;59358;52.134;5.596;2023-05-07T15:16:04;20.00;99.90
19206;DHT22;59358;52.134;5.596;2023-05-07T15:18:32;19.90;99.90
19206;DHT22;59358;52.134;5.596;2023-05-07T15:20:58;19.70;99.90
19206;DHT22;59358;52.134;5.596;2023-05-07T15:23:25;19.60;99.90
19206;DHT22;59358;52.134;5.596;2023-05-07T15:25:52;19.40;99.90
19206;DHT22;59358;52.134;5.596;2023-05-07T15:28:19;19.30;99.90
19206;DHT22;59358;52.134;5.596;2023-05-07T15:30:46;19.10;99.90
19206;DHT22;59358;52.134;5.596;2023-05-07T15:33:13;19.10;99.90
19206;DHT22;59358;52.134;5.596;2023-05-07T15:35:41;19.10;99.90
19206;DHT22;59358;52.134;5.596;2023-05-07T15:38:08;19.10;99.90